PWSweather.com
Personal Weather Stations
Station Observations
EDGELEY
Edgeley, Nd, Edgeley, ND 58433

Edgeley, NdEdgeley, ND 58433

Lat: 46.3599246, Lon: -98.7144392

Elevation: 1575

Station Type: Davis/Vantage Pro

www.edgeleyweather.com

High Low Average
Temperature 85.6°F29.8°C 65.4°F18.6°C 75.7°F24.3°C
Dew Point 69.4°F20.8°C 63.1°F17.3°C 66.4°F19.1°C
Winds 21.0 mph 33.8 kmh Calm Calm 4.0 mph N6.4 kmh N
Wind Gusts 27.0 mph43.5 kmh -- 8.0 mph12.9 kmh
Humidity 95% 48% 74%
Pressure 29.76 in1007.8 mb 29.58 in1001.7 mb -
Precipitation 0.00 in0.0 mm - -
Hour Temp Dew Point Humidity Winds Wind Gusts Pressure Precip Precip Rate Daily Precip Total
12:00 AM 72.7°F22.6°C 65.8°F18.8°C 79% Calm Calm 1.0 mph1.6 kmh 29.77 in1008.1 mb 0.00 in0.0 mm 0.00 in0.0 mm 0.00 in0.0 mm
12:05 AM 72.7°F22.6°C 66.2°F19.0°C 80% 3.0 mph N4.8 kmh N 5.0 mph8.0 kmh 29.78 in1008.5 mb 0.00 in0.0 mm 0.00 in0.0 mm 0.00 in0.0 mm
12:10 AM 72.6°F22.6°C 66.1°F18.9°C 80% 5.0 mph N8.0 kmh N 8.0 mph12.9 kmh 29.77 in1008.1 mb 0.00 in0.0 mm 0.00 in0.0 mm 0.00 in0.0 mm
12:15 AM 72.6°F22.6°C 66.1°F18.9°C 80% 6.0 mph N9.7 kmh N 6.0 mph9.7 kmh 29.78 in1008.5 mb 0.00 in0.0 mm 0.00 in0.0 mm 0.00 in0.0 mm
12:20 AM 72.6°F22.6°C 66.1°F18.9°C 80% 3.0 mph N4.8 kmh N 8.0 mph12.9 kmh 29.77 in1008.1 mb 0.00 in0.0 mm 0.00 in0.0 mm 0.00 in0.0 mm
12:25 AM 72.5°F22.5°C 66.0°F18.9°C 80% 3.0 mph N4.8 kmh N 8.0 mph12.9 kmh 29.77 in1008.1 mb 0.00 in0.0 mm 0.00 in0.0 mm 0.00 in0.0 mm
12:30 AM 72.4°F22.4°C 65.9°F18.8°C 80% 1.0 mph N1.6 kmh N 5.0 mph8.0 kmh 29.78 in1008.5 mb 0.00 in0.0 mm 0.00 in0.0 mm 0.00 in0.0 mm
12:35 AM 72.4°F22.4°C 66.3°F19.1°C 81% 4.0 mph N6.4 kmh N 9.0 mph14.5 kmh 29.76 in1007.8 mb 0.00 in0.0 mm 0.00 in0.0 mm 0.00 in0.0 mm
12:40 AM 72.3°F22.4°C 66.2°F19.0°C 81% 2.0 mph N3.2 kmh N 9.0 mph14.5 kmh 29.77 in1008.1 mb 0.00 in0.0 mm 0.00 in0.0 mm 0.00 in0.0 mm
12:45 AM 72.2°F22.3°C 66.1°F18.9°C 81% 7.0 mph N11.3 kmh N 7.0 mph11.3 kmh 29.76 in1007.8 mb 0.00 in0.0 mm 0.00 in0.0 mm 0.00 in0.0 mm
12:50 AM 72.1°F22.3°C 66.0°F18.9°C 81% 2.0 mph N3.2 kmh N 7.0 mph11.3 kmh 29.75 in1007.5 mb 0.00 in0.0 mm 0.00 in0.0 mm 0.00 in0.0 mm
12:55 AM 72.1°F22.3°C 66.0°F18.9°C 81% 4.0 mph N6.4 kmh N 7.0 mph11.3 kmh 29.76 in1007.8 mb 0.00 in0.0 mm 0.00 in0.0 mm 0.00 in0.0 mm
01:00 AM 72.1°F22.3°C 65.6°F18.7°C 80% Calm Calm 2.0 mph3.2 kmh 29.75 in1007.5 mb 0.00 in0.0 mm 0.00 in0.0 mm 0.00 in0.0 mm
01:05 AM 72.1°F22.3°C 65.6°F18.7°C 80% 1.0 mph N1.6 kmh N 7.0 mph11.3 kmh 29.75 in1007.5 mb 0.00 in0.0 mm 0.00 in0.0 mm 0.00 in0.0 mm
01:10 AM 72.2°F22.3°C 65.7°F18.7°C 80% 3.0 mph N4.8 kmh N 7.0 mph11.3 kmh 29.76 in1007.8 mb 0.00 in0.0 mm 0.00 in0.0 mm 0.00 in0.0 mm
01:15 AM 72.3°F22.4°C 65.8°F18.8°C 80% 2.0 mph N3.2 kmh N 3.0 mph4.8 kmh 29.75 in1007.5 mb 0.00 in0.0 mm 0.00 in0.0 mm 0.00 in0.0 mm
01:20 AM 72.3°F22.4°C 65.8°F18.8°C 80% 1.0 mph N1.6 kmh N 5.0 mph8.0 kmh 29.74 in1007.1 mb 0.00 in0.0 mm 0.00 in0.0 mm 0.00 in0.0 mm
01:25 AM 72.2°F22.3°C 65.7°F18.7°C 80% 2.0 mph N3.2 kmh N 5.0 mph8.0 kmh 29.74 in1007.1 mb 0.00 in0.0 mm 0.00 in0.0 mm 0.00 in0.0 mm
01:30 AM 72.2°F22.3°C 65.3°F18.5°C 79% 2.0 mph N3.2 kmh N 2.0 mph3.2 kmh 29.73 in1006.8 mb 0.00 in0.0 mm 0.00 in0.0 mm 0.00 in0.0 mm
01:35 AM 72.3°F22.4°C 65.4°F18.6°C 79% 5.0 mph N8.0 kmh N 6.0 mph9.7 kmh 29.72 in1006.4 mb 0.00 in0.0 mm 0.00 in0.0 mm 0.00 in0.0 mm
01:40 AM 72.3°F22.4°C 65.1°F18.4°C 78% 2.0 mph N3.2 kmh N 6.0 mph9.7 kmh 29.71 in1006.1 mb 0.00 in0.0 mm 0.00 in0.0 mm 0.00 in0.0 mm
01:45 AM 72.4°F22.4°C 65.2°F18.4°C 78% Calm Calm 2.0 mph3.2 kmh 29.72 in1006.4 mb 0.00 in0.0 mm 0.00 in0.0 mm 0.00 in0.0 mm
01:50 AM 72.4°F22.4°C 65.2°F18.4°C 78% 2.0 mph N3.2 kmh N 6.0 mph9.7 kmh 29.72 in1006.4 mb 0.00 in0.0 mm 0.00 in0.0 mm 0.00 in0.0 mm
01:55 AM 72.5°F22.5°C 65.3°F18.5°C 78% 2.0 mph N3.2 kmh N 6.0 mph9.7 kmh 29.73 in1006.8 mb 0.00 in0.0 mm 0.00 in0.0 mm 0.00 in0.0 mm
02:00 AM 72.5°F22.5°C 65.6°F18.7°C 79% 1.0 mph N1.6 kmh N 3.0 mph4.8 kmh 29.73 in1006.8 mb 0.00 in0.0 mm 0.00 in0.0 mm 0.00 in0.0 mm
02:05 AM 72.4°F22.4°C 65.5°F18.6°C 79% 5.0 mph N8.0 kmh N 7.0 mph11.3 kmh 29.73 in1006.8 mb 0.00 in0.0 mm 0.00 in0.0 mm 0.00 in0.0 mm
02:10 AM 72.5°F22.5°C 65.6°F18.7°C 79% 1.0 mph N1.6 kmh N 7.0 mph11.3 kmh 29.73 in1006.8 mb 0.00 in0.0 mm 0.00 in0.0 mm 0.00 in0.0 mm
02:15 AM 72.5°F22.5°C 65.6°F18.7°C 79% 3.0 mph N4.8 kmh N 3.0 mph4.8 kmh 29.73 in1006.8 mb 0.00 in0.0 mm 0.00 in0.0 mm 0.00 in0.0 mm
02:20 AM 72.5°F22.5°C 65.6°F18.7°C 79% 4.0 mph N6.4 kmh N 6.0 mph9.7 kmh 29.73 in1006.8 mb 0.00 in0.0 mm 0.00 in0.0 mm 0.00 in0.0 mm
02:25 AM 72.5°F22.5°C 65.6°F18.7°C 79% 5.0 mph N8.0 kmh N 6.0 mph9.7 kmh 29.74 in1007.1 mb 0.00 in0.0 mm 0.00 in0.0 mm 0.00 in0.0 mm
02:30 AM 72.5°F22.5°C 65.6°F18.7°C 79% 5.0 mph N8.0 kmh N 5.0 mph8.0 kmh 29.74 in1007.1 mb 0.00 in0.0 mm 0.00 in0.0 mm 0.00 in0.0 mm
02:35 AM 72.5°F22.5°C 66.0°F18.9°C 80% 2.0 mph N3.2 kmh N 6.0 mph9.7 kmh 29.74 in1007.1 mb 0.00 in0.0 mm 0.00 in0.0 mm 0.00 in0.0 mm
02:40 AM 72.4°F22.4°C 65.9°F18.8°C 80% 2.0 mph N3.2 kmh N 6.0 mph9.7 kmh 29.74 in1007.1 mb 0.00 in0.0 mm 0.00 in0.0 mm 0.00 in0.0 mm
02:45 AM 72.4°F22.4°C 66.3°F19.1°C 81% 5.0 mph N8.0 kmh N 5.0 mph8.0 kmh 29.75 in1007.5 mb 0.00 in0.0 mm 0.00 in0.0 mm 0.00 in0.0 mm
02:50 AM 72.2°F22.3°C 66.4°F19.1°C 82% 4.0 mph N6.4 kmh N 6.0 mph9.7 kmh 29.76 in1007.8 mb 0.00 in0.0 mm 0.00 in0.0 mm 0.00 in0.0 mm
02:55 AM 71.9°F22.2°C 66.8°F19.3°C 84% 4.0 mph N6.4 kmh N 7.0 mph11.3 kmh 29.76 in1007.8 mb 0.00 in0.0 mm 0.00 in0.0 mm 0.00 in0.0 mm
03:00 AM 71.6°F22.0°C 66.9°F19.4°C 85% 3.0 mph N4.8 kmh N 3.0 mph4.8 kmh 29.76 in1007.8 mb 0.00 in0.0 mm 0.00 in0.0 mm 0.00 in0.0 mm
03:05 AM 71.3°F21.8°C 66.9°F19.4°C 86% 5.0 mph N8.0 kmh N 8.0 mph12.9 kmh 29.76 in1007.8 mb 0.00 in0.0 mm 0.00 in0.0 mm 0.00 in0.0 mm
03:10 AM 71.0°F21.7°C 66.9°F19.4°C 87% 5.0 mph N8.0 kmh N 9.0 mph14.5 kmh 29.75 in1007.5 mb 0.00 in0.0 mm 0.00 in0.0 mm 0.00 in0.0 mm
03:15 AM 70.8°F21.6°C 66.7°F19.3°C 87% 3.0 mph N4.8 kmh N 5.0 mph8.0 kmh 29.76 in1007.8 mb 0.00 in0.0 mm 0.00 in0.0 mm 0.00 in0.0 mm
03:20 AM 70.7°F21.5°C 67.0°F19.4°C 88% 6.0 mph N9.7 kmh N 10.0 mph16.1 kmh 29.76 in1007.8 mb 0.00 in0.0 mm 0.00 in0.0 mm 0.00 in0.0 mm
03:25 AM 70.7°F21.5°C 67.3°F19.6°C 89% 6.0 mph N9.7 kmh N 10.0 mph16.1 kmh 29.76 in1007.8 mb 0.00 in0.0 mm 0.00 in0.0 mm 0.00 in0.0 mm
03:30 AM 70.5°F21.4°C 66.5°F19.2°C 87% 9.0 mph N14.5 kmh N 12.0 mph19.3 kmh 29.76 in1007.8 mb 0.01 in0.3 mm 0.12 in3.0 mm 0.01 in0.3 mm
03:35 AM 70.0°F21.1°C 65.0°F18.3°C 84% 5.0 mph N8.0 kmh N 15.0 mph24.1 kmh 29.75 in1007.5 mb 0.02 in0.5 mm 0.12 in3.0 mm 0.02 in0.5 mm
03:40 AM 69.0°F20.6°C 64.3°F17.9°C 85% 6.0 mph N9.7 kmh N 15.0 mph24.1 kmh 29.74 in1007.1 mb 0.04 in1.0 mm 0.24 in6.1 mm 0.04 in1.0 mm
03:45 AM 68.3°F20.2°C 64.0°F17.8°C 86% 6.0 mph N9.7 kmh N 6.0 mph9.7 kmh 29.72 in1006.4 mb 0.05 in1.3 mm 0.12 in3.0 mm 0.05 in1.3 mm
03:50 AM 67.8°F19.9°C 64.1°F17.8°C 88% 8.0 mph N12.9 kmh N 14.0 mph22.5 kmh 29.70 in1005.8 mb 0.05 in1.3 mm 0.00 in0.0 mm 0.05 in1.3 mm
03:55 AM 67.6°F19.8°C 64.3°F17.9°C 89% 7.0 mph N11.3 kmh N 14.0 mph22.5 kmh 29.70 in1005.8 mb 0.06 in1.5 mm 0.12 in3.0 mm 0.06 in1.5 mm
04:00 AM 67.5°F19.7°C 64.5°F18.1°C 90% 6.0 mph N9.7 kmh N 14.0 mph22.5 kmh 29.69 in1005.4 mb 0.06 in1.5 mm 0.00 in0.0 mm 0.06 in1.5 mm
04:05 AM 67.5°F19.7°C 64.8°F18.2°C 91% 6.0 mph N9.7 kmh N 17.0 mph27.4 kmh 29.69 in1005.4 mb 0.06 in1.5 mm 0.00 in0.0 mm 0.06 in1.5 mm
04:10 AM 68.0°F20.0°C 65.6°F18.7°C 92% 10.0 mph N16.1 kmh N 17.0 mph27.4 kmh 29.69 in1005.4 mb 0.06 in1.5 mm 0.00 in0.0 mm 0.06 in1.5 mm
04:15 AM 68.7°F20.4°C 66.0°F18.9°C 91% 15.0 mph N24.1 kmh N 16.0 mph25.7 kmh 29.68 in1005.1 mb 0.06 in1.5 mm 0.00 in0.0 mm 0.06 in1.5 mm
04:20 AM 69.2°F20.7°C 66.2°F19.0°C 90% 10.0 mph N16.1 kmh N 19.0 mph30.6 kmh 29.68 in1005.1 mb 0.07 in1.8 mm 0.12 in3.0 mm 0.07 in1.8 mm
04:25 AM 69.3°F20.7°C 65.9°F18.8°C 89% 9.0 mph N14.5 kmh N 26.0 mph41.8 kmh 29.67 in1004.7 mb 0.07 in1.8 mm 0.00 in0.0 mm 0.07 in1.8 mm
04:30 AM 69.3°F20.7°C 65.3°F18.5°C 87% 16.0 mph N25.7 kmh N 24.0 mph38.6 kmh 29.66 in1004.4 mb 0.07 in1.8 mm 0.00 in0.0 mm 0.07 in1.8 mm
04:35 AM 69.2°F20.7°C 65.2°F18.4°C 87% 9.0 mph N14.5 kmh N 24.0 mph38.6 kmh 29.65 in1004.1 mb 0.08 in2.0 mm 0.12 in3.0 mm 0.08 in2.0 mm
04:40 AM 68.9°F20.5°C 64.9°F18.3°C 87% 5.0 mph N8.0 kmh N 24.0 mph38.6 kmh 29.64 in1003.7 mb 0.09 in2.3 mm 0.12 in3.0 mm 0.09 in2.3 mm
04:45 AM 68.7°F20.4°C 64.0°F17.8°C 85% 21.0 mph N33.8 kmh N 21.0 mph33.8 kmh 29.64 in1003.7 mb 0.05 in1.3 mm 0.00 in0.0 mm 0.09 in2.3 mm
04:50 AM 68.6°F20.3°C 63.6°F17.6°C 84% 15.0 mph N24.1 kmh N 27.0 mph43.5 kmh 29.62 in1003.0 mb 0.06 in1.5 mm 0.12 in3.0 mm 0.10 in2.5 mm
04:55 AM 68.6°F20.3°C 63.2°F17.3°C 83% 11.0 mph N17.7 kmh N 27.0 mph43.5 kmh 29.58 in1001.7 mb 0.06 in1.5 mm 0.00 in0.0 mm 0.10 in2.5 mm
05:00 AM 68.6°F20.3°C 63.2°F17.3°C 83% 3.0 mph N4.8 kmh N 6.0 mph9.7 kmh 29.58 in1001.7 mb 0.05 in1.3 mm 0.00 in0.0 mm 0.10 in2.5 mm
05:05 AM 68.5°F20.3°C 63.1°F17.3°C 83% 10.0 mph N16.1 kmh N 14.0 mph22.5 kmh 29.60 in1002.4 mb 0.05 in1.3 mm 0.00 in0.0 mm 0.10 in2.5 mm
05:10 AM 68.5°F20.3°C 63.5°F17.5°C 84% 2.0 mph N3.2 kmh N 14.0 mph22.5 kmh 29.64 in1003.7 mb 0.05 in1.3 mm 0.00 in0.0 mm 0.10 in2.5 mm
05:15 AM 68.3°F20.2°C 63.3°F17.4°C 84% 2.0 mph N3.2 kmh N 5.0 mph8.0 kmh 29.64 in1003.7 mb 0.05 in1.3 mm 0.00 in0.0 mm 0.10 in2.5 mm
05:20 AM 68.1°F20.1°C 63.1°F17.3°C 84% 7.0 mph N11.3 kmh N 11.0 mph17.7 kmh 29.64 in1003.7 mb 0.05 in1.3 mm 0.00 in0.0 mm 0.10 in2.5 mm
05:25 AM 68.1°F20.1°C 63.1°F17.3°C 84% 5.0 mph N8.0 kmh N 12.0 mph19.3 kmh 29.64 in1003.7 mb 0.05 in1.3 mm 0.00 in0.0 mm 0.10 in2.5 mm
05:30 AM 68.1°F20.1°C 63.1°F17.3°C 84% 3.0 mph N4.8 kmh N 6.0 mph9.7 kmh 29.64 in1003.7 mb 0.03 in0.8 mm 0.00 in0.0 mm 0.10 in2.5 mm
05:35 AM 68.3°F20.2°C 63.3°F17.4°C 84% 4.0 mph N6.4 kmh N 11.0 mph17.7 kmh 29.65 in1004.1 mb 0.03 in0.8 mm 0.00 in0.0 mm 0.10 in2.5 mm
05:40 AM 68.3°F20.2°C 63.6°F17.6°C 85% 4.0 mph N6.4 kmh N 11.0 mph17.7 kmh 29.68 in1005.1 mb 0.03 in0.8 mm 0.00 in0.0 mm 0.10 in2.5 mm
05:45 AM 68.2°F20.1°C 64.2°F17.9°C 87% 3.0 mph N4.8 kmh N 8.0 mph12.9 kmh 29.68 in1005.1 mb 0.01 in0.3 mm 0.00 in0.0 mm 0.10 in2.5 mm
05:50 AM 68.0°F20.0°C 63.3°F17.4°C 85% 7.0 mph N11.3 kmh N 21.0 mph33.8 kmh 29.67 in1004.7 mb 0.01 in0.3 mm 0.00 in0.0 mm 0.10 in2.5 mm
05:55 AM 68.5°F20.3°C 63.1°F17.3°C 83% 5.0 mph N8.0 kmh N 21.0 mph33.8 kmh 29.68 in1005.1 mb 0.01 in0.3 mm 0.00 in0.0 mm 0.10 in2.5 mm
06:00 AM 68.8°F20.4°C 63.4°F17.4°C 83% 5.0 mph N8.0 kmh N 7.0 mph11.3 kmh 29.69 in1005.4 mb 0.00 in0.0 mm 0.00 in0.0 mm 0.10 in2.5 mm
06:05 AM 68.7°F20.4°C 63.3°F17.4°C 83% 1.0 mph N1.6 kmh N 9.0 mph14.5 kmh 29.69 in1005.4 mb 0.00 in0.0 mm 0.00 in0.0 mm 0.10 in2.5 mm
06:10 AM 68.6°F20.3°C 63.2°F17.3°C 83% 11.0 mph N17.7 kmh N 12.0 mph19.3 kmh 29.69 in1005.4 mb 0.00 in0.0 mm 0.00 in0.0 mm 0.10 in2.5 mm
06:15 AM 68.5°F20.3°C 64.2°F17.9°C 86% 5.0 mph N8.0 kmh N 5.0 mph8.0 kmh 29.69 in1005.4 mb 0.00 in0.0 mm 0.00 in0.0 mm 0.10 in2.5 mm
06:20 AM 68.3°F20.2°C 64.6°F18.1°C 88% 3.0 mph N4.8 kmh N 8.0 mph12.9 kmh 29.70 in1005.8 mb 0.00 in0.0 mm 0.00 in0.0 mm 0.10 in2.5 mm
06:25 AM 68.1°F20.1°C 64.7°F18.2°C 89% 2.0 mph N3.2 kmh N 8.0 mph12.9 kmh 29.70 in1005.8 mb 0.00 in0.0 mm 0.00 in0.0 mm 0.10 in2.5 mm
06:30 AM 67.7°F19.8°C 64.4°F18.0°C 89% 3.0 mph N4.8 kmh N 4.0 mph6.4 kmh 29.71 in1006.1 mb 0.00 in0.0 mm 0.00 in0.0 mm 0.10 in2.5 mm
06:35 AM 67.4°F19.7°C 64.4°F18.0°C 90% Calm Calm 4.0 mph6.4 kmh 29.71 in1006.1 mb 0.00 in0.0 mm 0.00 in0.0 mm 0.10 in2.5 mm
06:40 AM 67.1°F19.5°C 64.1°F17.8°C 90% 2.0 mph N3.2 kmh N 4.0 mph6.4 kmh 29.72 in1006.4 mb 0.00 in0.0 mm 0.00 in0.0 mm 0.10 in2.5 mm
06:45 AM 66.8°F19.3°C 64.1°F17.8°C 91% Calm Calm -- 29.72 in1006.4 mb 0.00 in0.0 mm 0.00 in0.0 mm 0.10 in2.5 mm
06:50 AM 66.7°F19.3°C 64.0°F17.8°C 91% 2.0 mph N3.2 kmh N 3.0 mph4.8 kmh 29.72 in1006.4 mb 0.00 in0.0 mm 0.00 in0.0 mm 0.10 in2.5 mm
06:55 AM 66.4°F19.1°C 64.0°F17.8°C 92% Calm Calm 3.0 mph4.8 kmh 29.73 in1006.8 mb 0.00 in0.0 mm 0.00 in0.0 mm 0.10 in2.5 mm
07:00 AM 66.2°F19.0°C 63.8°F17.7°C 92% 2.0 mph N3.2 kmh N 2.0 mph3.2 kmh 29.73 in1006.8 mb 0.00 in0.0 mm 0.00 in0.0 mm 0.10 in2.5 mm
07:05 AM 66.1°F18.9°C 63.7°F17.6°C 92% 1.0 mph N1.6 kmh N 4.0 mph6.4 kmh 29.73 in1006.8 mb 0.00 in0.0 mm 0.00 in0.0 mm 0.10 in2.5 mm
07:10 AM 66.0°F18.9°C 63.9°F17.7°C 93% Calm Calm 4.0 mph6.4 kmh 29.73 in1006.8 mb 0.00 in0.0 mm 0.00 in0.0 mm 0.10 in2.5 mm
07:15 AM 65.9°F18.8°C 63.8°F17.7°C 93% Calm Calm -- 29.73 in1006.8 mb 0.00 in0.0 mm 0.00 in0.0 mm 0.10 in2.5 mm
07:20 AM 65.8°F18.8°C 63.7°F17.6°C 93% Calm Calm -- 29.72 in1006.4 mb 0.00 in0.0 mm 0.00 in0.0 mm 0.10 in2.5 mm
07:25 AM 65.7°F18.7°C 63.6°F17.6°C 93% Calm Calm -- 29.72 in1006.4 mb 0.00 in0.0 mm 0.00 in0.0 mm 0.10 in2.5 mm
07:30 AM 65.7°F18.7°C 63.6°F17.6°C 93% Calm Calm -- 29.71 in1006.1 mb 0.00 in0.0 mm 0.00 in0.0 mm 0.10 in2.5 mm
07:35 AM 65.5°F18.6°C 63.4°F17.4°C 93% Calm Calm -- 29.70 in1005.8 mb 0.00 in0.0 mm 0.00 in0.0 mm 0.10 in2.5 mm
07:40 AM 65.5°F18.6°C 63.7°F17.6°C 94% Calm Calm -- 29.69 in1005.4 mb 0.00 in0.0 mm 0.00 in0.0 mm 0.10 in2.5 mm
07:45 AM 65.4°F18.6°C 63.6°F17.6°C 94% Calm Calm -- 29.69 in1005.4 mb 0.00 in0.0 mm 0.00 in0.0 mm 0.10 in2.5 mm
07:50 AM 65.4°F18.6°C 63.6°F17.6°C 94% Calm Calm -- 29.69 in1005.4 mb 0.00 in0.0 mm 0.00 in0.0 mm 0.10 in2.5 mm
07:55 AM 65.5°F18.6°C 63.7°F17.6°C 94% Calm Calm -- 29.69 in1005.4 mb 0.00 in0.0 mm 0.00 in0.0 mm 0.10 in2.5 mm
08:00 AM 65.5°F18.6°C 63.7°F17.6°C 94% Calm Calm -- 29.68 in1005.1 mb 0.00 in0.0 mm 0.00 in0.0 mm 0.10 in2.5 mm
08:05 AM 65.6°F18.7°C 63.8°F17.7°C 94% Calm Calm -- 29.68 in1005.1 mb 0.00 in0.0 mm 0.00 in0.0 mm 0.10 in2.5 mm
08:10 AM 65.7°F18.7°C 64.2°F17.9°C 95% 4.0 mph N6.4 kmh N 4.0 mph6.4 kmh 29.68 in1005.1 mb 0.00 in0.0 mm 0.00 in0.0 mm 0.10 in2.5 mm
08:15 AM 65.9°F18.8°C 64.4°F18.0°C 95% 3.0 mph N4.8 kmh N 4.0 mph6.4 kmh 29.68 in1005.1 mb 0.00 in0.0 mm 0.00 in0.0 mm 0.10 in2.5 mm
08:20 AM 66.1°F18.9°C 64.6°F18.1°C 95% 3.0 mph N4.8 kmh N 5.0 mph8.0 kmh 29.67 in1004.7 mb 0.00 in0.0 mm 0.00 in0.0 mm 0.10 in2.5 mm
08:25 AM 66.2°F19.0°C 64.7°F18.2°C 95% 1.0 mph N1.6 kmh N 7.0 mph11.3 kmh 29.67 in1004.7 mb 0.00 in0.0 mm 0.00 in0.0 mm 0.10 in2.5 mm
08:30 AM 66.5°F19.2°C 65.0°F18.3°C 95% 1.0 mph N1.6 kmh N 3.0 mph4.8 kmh 29.68 in1005.1 mb 0.00 in0.0 mm 0.00 in0.0 mm 0.10 in2.5 mm
08:35 AM 66.7°F19.3°C 65.2°F18.4°C 95% 3.0 mph N4.8 kmh N 7.0 mph11.3 kmh 29.68 in1005.1 mb 0.00 in0.0 mm 0.00 in0.0 mm 0.10 in2.5 mm
08:40 AM 66.9°F19.4°C 65.4°F18.6°C 95% 5.0 mph N8.0 kmh N 7.0 mph11.3 kmh 29.68 in1005.1 mb 0.00 in0.0 mm 0.00 in0.0 mm 0.10 in2.5 mm
08:45 AM 67.1°F19.5°C 65.6°F18.7°C 95% 5.0 mph N8.0 kmh N 5.0 mph8.0 kmh 29.67 in1004.7 mb 0.00 in0.0 mm 0.00 in0.0 mm 0.10 in2.5 mm
08:50 AM 67.4°F19.7°C 65.9°F18.8°C 95% 4.0 mph N6.4 kmh N 8.0 mph12.9 kmh 29.67 in1004.7 mb 0.00 in0.0 mm 0.00 in0.0 mm 0.10 in2.5 mm
08:55 AM 68.0°F20.0°C 66.5°F19.2°C 95% 5.0 mph N8.0 kmh N 9.0 mph14.5 kmh 29.67 in1004.7 mb 0.00 in0.0 mm 0.00 in0.0 mm 0.10 in2.5 mm
09:00 AM 68.5°F20.3°C 66.7°F19.3°C 94% 4.0 mph N6.4 kmh N 6.0 mph9.7 kmh 29.66 in1004.4 mb 0.00 in0.0 mm 0.00 in0.0 mm 0.10 in2.5 mm
09:05 AM 68.9°F20.5°C 67.1°F19.5°C 94% 7.0 mph N11.3 kmh N 11.0 mph17.7 kmh 29.65 in1004.1 mb 0.00 in0.0 mm 0.00 in0.0 mm 0.10 in2.5 mm
09:10 AM 69.4°F20.8°C 67.6°F19.8°C 94% 1.0 mph N1.6 kmh N 11.0 mph17.7 kmh 29.64 in1003.7 mb 0.00 in0.0 mm 0.00 in0.0 mm 0.10 in2.5 mm
09:15 AM 70.0°F21.1°C 67.9°F19.9°C 93% 4.0 mph N6.4 kmh N 9.0 mph14.5 kmh 29.63 in1003.4 mb 0.00 in0.0 mm 0.00 in0.0 mm 0.10 in2.5 mm
09:20 AM 70.7°F21.5°C 68.0°F20.0°C 91% 2.0 mph N3.2 kmh N 13.0 mph20.9 kmh 29.63 in1003.4 mb 0.00 in0.0 mm 0.00 in0.0 mm 0.10 in2.5 mm
09:25 AM 71.1°F21.7°C 67.7°F19.8°C 89% 4.0 mph N6.4 kmh N 14.0 mph22.5 kmh 29.65 in1004.1 mb 0.00 in0.0 mm 0.00 in0.0 mm 0.10 in2.5 mm
09:30 AM 71.7°F22.1°C 67.6°F19.8°C 87% 1.0 mph N1.6 kmh N 1.0 mph1.6 kmh 29.67 in1004.7 mb 0.00 in0.0 mm 0.00 in0.0 mm 0.10 in2.5 mm
09:35 AM 72.0°F22.2°C 67.6°F19.8°C 86% 5.0 mph N8.0 kmh N 6.0 mph9.7 kmh 29.66 in1004.4 mb 0.00 in0.0 mm 0.00 in0.0 mm 0.10 in2.5 mm
09:40 AM 72.1°F22.3°C 67.0°F19.4°C 84% 2.0 mph N3.2 kmh N 6.0 mph9.7 kmh 29.66 in1004.4 mb 0.00 in0.0 mm 0.00 in0.0 mm 0.10 in2.5 mm
09:45 AM 72.3°F22.4°C 66.9°F19.4°C 83% 1.0 mph N1.6 kmh N 2.0 mph3.2 kmh 29.67 in1004.7 mb 0.00 in0.0 mm 0.00 in0.0 mm 0.10 in2.5 mm
09:50 AM 72.7°F22.6°C 67.2°F19.6°C 83% 2.0 mph N3.2 kmh N 8.0 mph12.9 kmh 29.67 in1004.7 mb 0.00 in0.0 mm 0.00 in0.0 mm 0.10 in2.5 mm
09:55 AM 73.1°F22.8°C 67.3°F19.6°C 82% 3.0 mph N4.8 kmh N 10.0 mph16.1 kmh 29.67 in1004.7 mb 0.00 in0.0 mm 0.00 in0.0 mm 0.10 in2.5 mm
10:00 AM 73.7°F23.2°C 66.8°F19.3°C 79% 4.0 mph N6.4 kmh N 8.0 mph12.9 kmh 29.67 in1004.7 mb 0.00 in0.0 mm 0.00 in0.0 mm 0.10 in2.5 mm
10:05 AM 74.1°F23.4°C 66.8°F19.3°C 78% 4.0 mph N6.4 kmh N 8.0 mph12.9 kmh 29.66 in1004.4 mb 0.00 in0.0 mm 0.00 in0.0 mm 0.10 in2.5 mm
10:10 AM 74.5°F23.6°C 66.1°F18.9°C 75% 5.0 mph N8.0 kmh N 8.0 mph12.9 kmh 29.66 in1004.4 mb 0.00 in0.0 mm 0.00 in0.0 mm 0.10 in2.5 mm
10:15 AM 74.6°F23.7°C 66.2°F19.0°C 75% 2.0 mph N3.2 kmh N 2.0 mph3.2 kmh 29.66 in1004.4 mb 0.00 in0.0 mm 0.00 in0.0 mm 0.10 in2.5 mm
10:20 AM 74.6°F23.7°C 66.5°F19.2°C 76% 7.0 mph N11.3 kmh N 10.0 mph16.1 kmh 29.66 in1004.4 mb 0.00 in0.0 mm 0.00 in0.0 mm 0.10 in2.5 mm
10:25 AM 74.9°F23.8°C 66.1°F18.9°C 74% 8.0 mph N12.9 kmh N 10.0 mph16.1 kmh 29.66 in1004.4 mb 0.00 in0.0 mm 0.00 in0.0 mm 0.10 in2.5 mm
10:30 AM 75.1°F23.9°C 66.3°F19.1°C 74% 8.0 mph N12.9 kmh N 8.0 mph12.9 kmh 29.66 in1004.4 mb 0.00 in0.0 mm 0.00 in0.0 mm 0.10 in2.5 mm
10:35 AM 75.3°F24.1°C 66.5°F19.2°C 74% 7.0 mph N11.3 kmh N 12.0 mph19.3 kmh 29.66 in1004.4 mb 0.00 in0.0 mm 0.00 in0.0 mm 0.10 in2.5 mm
10:40 AM 75.4°F24.1°C 66.5°F19.2°C 74% 7.0 mph N11.3 kmh N 12.0 mph19.3 kmh 29.65 in1004.1 mb 0.00 in0.0 mm 0.00 in0.0 mm 0.10 in2.5 mm
10:45 AM 75.5°F24.2°C 66.6°F19.2°C 74% 6.0 mph N9.7 kmh N 6.0 mph9.7 kmh 29.65 in1004.1 mb 0.00 in0.0 mm 0.00 in0.0 mm 0.10 in2.5 mm
10:50 AM 75.7°F24.3°C 67.2°F19.6°C 75% 5.0 mph N8.0 kmh N 9.0 mph14.5 kmh 29.64 in1003.7 mb 0.00 in0.0 mm 0.00 in0.0 mm 0.10 in2.5 mm
10:55 AM 76.0°F24.4°C 67.1°F19.5°C 74% 6.0 mph N9.7 kmh N 11.0 mph17.7 kmh 29.65 in1004.1 mb 0.00 in0.0 mm 0.00 in0.0 mm 0.10 in2.5 mm
11:00 AM 76.1°F24.5°C 66.4°F19.1°C 72% 5.0 mph N8.0 kmh N 7.0 mph11.3 kmh 29.65 in1004.1 mb 0.00 in0.0 mm 0.00 in0.0 mm 0.10 in2.5 mm
11:05 AM 76.1°F24.5°C 67.2°F19.6°C 74% 7.0 mph N11.3 kmh N 9.0 mph14.5 kmh 29.65 in1004.1 mb 0.00 in0.0 mm 0.00 in0.0 mm 0.10 in2.5 mm
11:10 AM 76.4°F24.7°C 67.5°F19.7°C 74% 5.0 mph N8.0 kmh N 11.0 mph17.7 kmh 29.65 in1004.1 mb 0.00 in0.0 mm 0.00 in0.0 mm 0.10 in2.5 mm
11:15 AM 76.8°F24.9°C 68.3°F20.2°C 75% 6.0 mph N9.7 kmh N 8.0 mph12.9 kmh 29.65 in1004.1 mb 0.00 in0.0 mm 0.00 in0.0 mm 0.10 in2.5 mm
11:20 AM 77.0°F25.0°C 66.9°F19.4°C 71% 4.0 mph N6.4 kmh N 13.0 mph20.9 kmh 29.66 in1004.4 mb 0.00 in0.0 mm 0.00 in0.0 mm 0.10 in2.5 mm
11:25 AM 77.1°F25.1°C 66.2°F19.0°C 69% 5.0 mph N8.0 kmh N 13.0 mph20.9 kmh 29.65 in1004.1 mb 0.00 in0.0 mm 0.00 in0.0 mm 0.10 in2.5 mm
11:30 AM 77.2°F25.1°C 67.1°F19.5°C 71% 3.0 mph N4.8 kmh N 4.0 mph6.4 kmh 29.66 in1004.4 mb 0.00 in0.0 mm 0.00 in0.0 mm 0.10 in2.5 mm
11:35 AM 77.2°F25.1°C 67.1°F19.5°C 71% 7.0 mph N11.3 kmh N 9.0 mph14.5 kmh 29.65 in1004.1 mb 0.00 in0.0 mm 0.00 in0.0 mm 0.10 in2.5 mm
11:40 AM 77.4°F25.2°C 66.9°F19.4°C 70% 4.0 mph N6.4 kmh N 12.0 mph19.3 kmh 29.65 in1004.1 mb 0.00 in0.0 mm 0.00 in0.0 mm 0.10 in2.5 mm
11:45 AM 77.8°F25.4°C 67.2°F19.6°C 70% 11.0 mph N17.7 kmh N 11.0 mph17.7 kmh 29.66 in1004.4 mb 0.00 in0.0 mm 0.00 in0.0 mm 0.10 in2.5 mm
11:50 AM 77.7°F25.4°C 67.1°F19.5°C 70% 3.0 mph N4.8 kmh N 11.0 mph17.7 kmh 29.66 in1004.4 mb 0.00 in0.0 mm 0.00 in0.0 mm 0.10 in2.5 mm
11:55 AM 77.8°F25.4°C 67.2°F19.6°C 70% 4.0 mph N6.4 kmh N 11.0 mph17.7 kmh 29.66 in1004.4 mb 0.00 in0.0 mm 0.00 in0.0 mm 0.10 in2.5 mm
12:00 PM 78.0°F25.6°C 67.0°F19.4°C 69% 3.0 mph N4.8 kmh N 4.0 mph6.4 kmh 29.66 in1004.4 mb 0.00 in0.0 mm 0.00 in0.0 mm 0.10 in2.5 mm
12:05 PM 78.1°F25.6°C 67.9°F19.9°C 71% 5.0 mph N8.0 kmh N 7.0 mph11.3 kmh 29.66 in1004.4 mb 0.00 in0.0 mm 0.00 in0.0 mm 0.10 in2.5 mm
12:10 PM 77.9°F25.5°C 66.5°F19.2°C 68% 6.0 mph N9.7 kmh N 11.0 mph17.7 kmh 29.66 in1004.4 mb 0.00 in0.0 mm 0.00 in0.0 mm 0.10 in2.5 mm
12:15 PM 78.0°F25.6°C 67.8°F19.9°C 71% 4.0 mph N6.4 kmh N 6.0 mph9.7 kmh 29.66 in1004.4 mb 0.00 in0.0 mm 0.00 in0.0 mm 0.10 in2.5 mm
12:20 PM 78.5°F25.8°C 67.9°F19.9°C 70% 4.0 mph N6.4 kmh N 8.0 mph12.9 kmh 29.66 in1004.4 mb 0.00 in0.0 mm 0.00 in0.0 mm 0.10 in2.5 mm
12:25 PM 78.7°F25.9°C 67.7°F19.8°C 69% 4.0 mph N6.4 kmh N 12.0 mph19.3 kmh 29.66 in1004.4 mb 0.00 in0.0 mm 0.00 in0.0 mm 0.10 in2.5 mm
12:30 PM 78.5°F25.8°C 67.9°F19.9°C 70% 5.0 mph N8.0 kmh N 6.0 mph9.7 kmh 29.66 in1004.4 mb 0.00 in0.0 mm 0.00 in0.0 mm 0.10 in2.5 mm
12:35 PM 78.8°F26.0°C 68.2°F20.1°C 70% 4.0 mph N6.4 kmh N 12.0 mph19.3 kmh 29.65 in1004.1 mb 0.00 in0.0 mm 0.00 in0.0 mm 0.10 in2.5 mm
12:40 PM 79.3°F26.3°C 67.8°F19.9°C 68% 6.0 mph N9.7 kmh N 15.0 mph24.1 kmh 29.66 in1004.4 mb 0.00 in0.0 mm 0.00 in0.0 mm 0.10 in2.5 mm
12:45 PM 79.3°F26.3°C 67.4°F19.7°C 67% 9.0 mph N14.5 kmh N 9.0 mph14.5 kmh 29.65 in1004.1 mb 0.00 in0.0 mm 0.00 in0.0 mm 0.10 in2.5 mm
12:50 PM 79.5°F26.4°C 68.5°F20.3°C 69% 9.0 mph N14.5 kmh N 13.0 mph20.9 kmh 29.66 in1004.4 mb 0.00 in0.0 mm 0.00 in0.0 mm 0.10 in2.5 mm
12:55 PM 79.7°F26.5°C 68.2°F20.1°C 68% 3.0 mph N4.8 kmh N 13.0 mph20.9 kmh 29.66 in1004.4 mb 0.00 in0.0 mm 0.00 in0.0 mm 0.10 in2.5 mm
01:00 PM 80.2°F26.8°C 68.3°F20.2°C 67% 10.0 mph N16.1 kmh N 11.0 mph17.7 kmh 29.67 in1004.7 mb 0.00 in0.0 mm 0.00 in0.0 mm 0.10 in2.5 mm
01:05 PM 80.2°F26.8°C 67.8°F19.9°C 66% 6.0 mph N9.7 kmh N 11.0 mph17.7 kmh 29.67 in1004.7 mb 0.00 in0.0 mm 0.00 in0.0 mm 0.10 in2.5 mm
01:10 PM 80.3°F26.8°C 68.8°F20.4°C 68% 4.0 mph N6.4 kmh N 12.0 mph19.3 kmh 29.66 in1004.4 mb 0.00 in0.0 mm 0.00 in0.0 mm 0.10 in2.5 mm
01:15 PM 80.3°F26.8°C 68.4°F20.2°C 67% 4.0 mph N6.4 kmh N 8.0 mph12.9 kmh 29.66 in1004.4 mb 0.00 in0.0 mm 0.00 in0.0 mm 0.10 in2.5 mm
01:20 PM 79.9°F26.6°C 68.4°F20.2°C 68% 5.0 mph N8.0 kmh N 9.0 mph14.5 kmh 29.66 in1004.4 mb 0.00 in0.0 mm 0.00 in0.0 mm 0.10 in2.5 mm
01:25 PM 80.2°F26.8°C 69.1°F20.6°C 69% 5.0 mph N8.0 kmh N 15.0 mph24.1 kmh 29.66 in1004.4 mb 0.00 in0.0 mm 0.00 in0.0 mm 0.10 in2.5 mm
01:30 PM 80.6°F27.0°C 68.6°F20.3°C 67% 10.0 mph N16.1 kmh N 12.0 mph19.3 kmh 29.66 in1004.4 mb 0.00 in0.0 mm 0.00 in0.0 mm 0.10 in2.5 mm
01:35 PM 80.8°F27.1°C 68.8°F20.4°C 67% 4.0 mph N6.4 kmh N 15.0 mph24.1 kmh 29.66 in1004.4 mb 0.00 in0.0 mm 0.00 in0.0 mm 0.10 in2.5 mm
01:40 PM 81.1°F27.3°C 69.1°F20.6°C 67% 11.0 mph N17.7 kmh N 16.0 mph25.7 kmh 29.66 in1004.4 mb 0.00 in0.0 mm 0.00 in0.0 mm 0.10 in2.5 mm
01:45 PM 81.4°F27.4°C 69.4°F20.8°C 67% 2.0 mph N3.2 kmh N 9.0 mph14.5 kmh 29.66 in1004.4 mb 0.00 in0.0 mm 0.00 in0.0 mm 0.10 in2.5 mm
01:50 PM 81.8°F27.7°C 68.9°F20.5°C 65% 7.0 mph N11.3 kmh N 15.0 mph24.1 kmh 29.66 in1004.4 mb 0.00 in0.0 mm 0.00 in0.0 mm 0.10 in2.5 mm
01:55 PM 81.9°F27.7°C 69.4°F20.8°C 66% 3.0 mph N4.8 kmh N 15.0 mph24.1 kmh 29.65 in1004.1 mb 0.00 in0.0 mm 0.00 in0.0 mm 0.10 in2.5 mm
02:00 PM 81.5°F27.5°C 69.1°F20.6°C 66% 8.0 mph N12.9 kmh N 9.0 mph14.5 kmh 29.65 in1004.1 mb 0.00 in0.0 mm 0.00 in0.0 mm 0.10 in2.5 mm
02:05 PM 81.4°F27.4°C 69.4°F20.8°C 67% 8.0 mph N12.9 kmh N 10.0 mph16.1 kmh 29.65 in1004.1 mb 0.00 in0.0 mm 0.00 in0.0 mm 0.10 in2.5 mm
02:10 PM 81.3°F27.4°C 69.3°F20.7°C 67% 6.0 mph N9.7 kmh N 14.0 mph22.5 kmh 29.65 in1004.1 mb 0.00 in0.0 mm 0.00 in0.0 mm 0.10 in2.5 mm
02:15 PM 81.8°F27.7°C 69.3°F20.7°C 66% 9.0 mph N14.5 kmh N 9.0 mph14.5 kmh 29.65 in1004.1 mb 0.00 in0.0 mm 0.00 in0.0 mm 0.10 in2.5 mm
02:20 PM 82.3°F27.9°C 69.4°F20.8°C 65% 7.0 mph N11.3 kmh N 17.0 mph27.4 kmh 29.65 in1004.1 mb 0.00 in0.0 mm 0.00 in0.0 mm 0.10 in2.5 mm
02:25 PM 82.3°F27.9°C 67.0°F19.4°C 60% 7.0 mph N11.3 kmh N 17.0 mph27.4 kmh 29.65 in1004.1 mb 0.00 in0.0 mm 0.00 in0.0 mm 0.10 in2.5 mm
02:30 PM 82.7°F28.2°C 68.4°F20.2°C 62% 3.0 mph N4.8 kmh N 4.0 mph6.4 kmh 29.65 in1004.1 mb 0.00 in0.0 mm 0.00 in0.0 mm 0.10 in2.5 mm
02:35 PM 82.6°F28.1°C 69.2°F20.7°C 64% 7.0 mph N11.3 kmh N 13.0 mph20.9 kmh 29.65 in1004.1 mb 0.00 in0.0 mm 0.00 in0.0 mm 0.10 in2.5 mm
02:40 PM 82.6°F28.1°C 68.3°F20.2°C 62% 5.0 mph N8.0 kmh N 13.0 mph20.9 kmh 29.65 in1004.1 mb 0.00 in0.0 mm 0.00 in0.0 mm 0.10 in2.5 mm
02:45 PM 82.6°F28.1°C 69.2°F20.7°C 64% 4.0 mph N6.4 kmh N 13.0 mph20.9 kmh 29.64 in1003.7 mb 0.00 in0.0 mm 0.00 in0.0 mm 0.10 in2.5 mm
02:50 PM 83.0°F28.3°C 68.2°F20.1°C 61% 11.0 mph N17.7 kmh N 14.0 mph22.5 kmh 29.65 in1004.1 mb 0.00 in0.0 mm 0.00 in0.0 mm 0.10 in2.5 mm
02:55 PM 83.1°F28.4°C 67.8°F19.9°C 60% 6.0 mph N9.7 kmh N 14.0 mph22.5 kmh 29.65 in1004.1 mb 0.00 in0.0 mm 0.00 in0.0 mm 0.10 in2.5 mm
03:00 PM 83.0°F28.3°C 67.7°F19.8°C 60% 4.0 mph N6.4 kmh N 8.0 mph12.9 kmh 29.65 in1004.1 mb 0.00 in0.0 mm 0.00 in0.0 mm 0.10 in2.5 mm
03:05 PM 83.1°F28.4°C 68.3°F20.2°C 61% 13.0 mph N20.9 kmh N 16.0 mph25.7 kmh 29.65 in1004.1 mb 0.00 in0.0 mm 0.00 in0.0 mm 0.10 in2.5 mm
03:10 PM 83.2°F28.4°C 68.8°F20.4°C 62% 4.0 mph N6.4 kmh N 16.0 mph25.7 kmh 29.65 in1004.1 mb 0.00 in0.0 mm 0.00 in0.0 mm 0.10 in2.5 mm
03:15 PM 83.4°F28.6°C 69.0°F20.6°C 62% 4.0 mph N6.4 kmh N 11.0 mph17.7 kmh 29.65 in1004.1 mb 0.00 in0.0 mm 0.00 in0.0 mm 0.10 in2.5 mm
03:20 PM 83.5°F28.6°C 69.1°F20.6°C 62% 5.0 mph N8.0 kmh N 14.0 mph22.5 kmh 29.65 in1004.1 mb 0.00 in0.0 mm 0.00 in0.0 mm 0.10 in2.5 mm
03:25 PM 84.2°F29.0°C 68.8°F20.4°C 60% 8.0 mph N12.9 kmh N 16.0 mph25.7 kmh 29.65 in1004.1 mb 0.00 in0.0 mm 0.00 in0.0 mm 0.10 in2.5 mm
03:30 PM 84.6°F29.2°C 69.2°F20.7°C 60% 5.0 mph N8.0 kmh N 5.0 mph8.0 kmh 29.65 in1004.1 mb 0.00 in0.0 mm 0.00 in0.0 mm 0.10 in2.5 mm
03:35 PM 84.5°F29.2°C 68.1°F20.1°C 58% 7.0 mph N11.3 kmh N 14.0 mph22.5 kmh 29.66 in1004.4 mb 0.00 in0.0 mm 0.00 in0.0 mm 0.10 in2.5 mm
03:40 PM 84.5°F29.2°C 67.6°F19.8°C 57% 5.0 mph N8.0 kmh N 14.0 mph22.5 kmh 29.66 in1004.4 mb 0.00 in0.0 mm 0.00 in0.0 mm 0.10 in2.5 mm
03:45 PM 83.9°F28.8°C 68.5°F20.3°C 60% 8.0 mph N12.9 kmh N 10.0 mph16.1 kmh 29.65 in1004.1 mb 0.00 in0.0 mm 0.00 in0.0 mm 0.10 in2.5 mm
03:50 PM 84.0°F28.9°C 67.7°F19.8°C 58% 5.0 mph N8.0 kmh N 16.0 mph25.7 kmh 29.65 in1004.1 mb 0.00 in0.0 mm 0.00 in0.0 mm 0.10 in2.5 mm
03:55 PM 84.2°F29.0°C 66.8°F19.3°C 56% 6.0 mph N9.7 kmh N 19.0 mph30.6 kmh 29.65 in1004.1 mb 0.00 in0.0 mm 0.00 in0.0 mm 0.10 in2.5 mm
04:00 PM 84.3°F29.1°C 67.9°F19.9°C 58% 8.0 mph N12.9 kmh N 14.0 mph22.5 kmh 29.66 in1004.4 mb 0.00 in0.0 mm 0.00 in0.0 mm 0.10 in2.5 mm
04:05 PM 84.6°F29.2°C 66.1°F18.9°C 54% 3.0 mph N4.8 kmh N 16.0 mph25.7 kmh 29.65 in1004.1 mb 0.00 in0.0 mm 0.00 in0.0 mm 0.10 in2.5 mm
04:10 PM 84.8°F29.3°C 66.9°F19.4°C 55% 9.0 mph N14.5 kmh N 16.0 mph25.7 kmh 29.65 in1004.1 mb 0.00 in0.0 mm 0.00 in0.0 mm 0.10 in2.5 mm
04:15 PM 85.1°F29.5°C 66.6°F19.2°C 54% 10.0 mph N16.1 kmh N 10.0 mph16.1 kmh 29.65 in1004.1 mb 0.00 in0.0 mm 0.00 in0.0 mm 0.10 in2.5 mm
04:20 PM 85.2°F29.6°C 65.6°F18.7°C 52% 4.0 mph N6.4 kmh N 13.0 mph20.9 kmh 29.65 in1004.1 mb 0.00 in0.0 mm 0.00 in0.0 mm 0.10 in2.5 mm
04:25 PM 85.2°F29.6°C 66.7°F19.3°C 54% 2.0 mph N3.2 kmh N 13.0 mph20.9 kmh 29.65 in1004.1 mb 0.00 in0.0 mm 0.00 in0.0 mm 0.10 in2.5 mm
04:30 PM 85.3°F29.6°C 66.8°F19.3°C 54% 8.0 mph N12.9 kmh N 10.0 mph16.1 kmh 29.65 in1004.1 mb 0.00 in0.0 mm 0.00 in0.0 mm 0.10 in2.5 mm
04:35 PM 85.4°F29.7°C 66.9°F19.4°C 54% 7.0 mph N11.3 kmh N 17.0 mph27.4 kmh 29.65 in1004.1 mb 0.00 in0.0 mm 0.00 in0.0 mm 0.10 in2.5 mm
04:40 PM 85.5°F29.7°C 67.0°F19.4°C 54% 3.0 mph N4.8 kmh N 17.0 mph27.4 kmh 29.65 in1004.1 mb 0.00 in0.0 mm 0.00 in0.0 mm 0.10 in2.5 mm
04:45 PM 85.6°F29.8°C 66.5°F19.2°C 53% 4.0 mph N6.4 kmh N 13.0 mph20.9 kmh 29.65 in1004.1 mb 0.00 in0.0 mm 0.00 in0.0 mm 0.10 in2.5 mm
04:50 PM 85.6°F29.8°C 66.0°F18.9°C 52% 5.0 mph N8.0 kmh N 13.0 mph20.9 kmh 29.65 in1004.1 mb 0.00 in0.0 mm 0.00 in0.0 mm 0.10 in2.5 mm
04:55 PM 85.3°F29.6°C 66.8°F19.3°C 54% 2.0 mph N3.2 kmh N 13.0 mph20.9 kmh 29.65 in1004.1 mb 0.00 in0.0 mm 0.00 in0.0 mm 0.10 in2.5 mm
05:00 PM 85.4°F29.7°C 66.3°F19.1°C 53% 7.0 mph N11.3 kmh N 8.0 mph12.9 kmh 29.65 in1004.1 mb 0.00 in0.0 mm 0.00 in0.0 mm 0.10 in2.5 mm
05:05 PM 85.5°F29.7°C 66.4°F19.1°C 53% 7.0 mph N11.3 kmh N 11.0 mph17.7 kmh 29.64 in1003.7 mb 0.00 in0.0 mm 0.00 in0.0 mm 0.10 in2.5 mm
05:10 PM 85.4°F29.7°C 64.7°F18.2°C 50% 4.0 mph N6.4 kmh N 12.0 mph19.3 kmh 29.65 in1004.1 mb 0.00 in0.0 mm 0.00 in0.0 mm 0.10 in2.5 mm
05:15 PM 85.5°F29.7°C 64.2°F17.9°C 49% 4.0 mph N6.4 kmh N 12.0 mph19.3 kmh 29.65 in1004.1 mb 0.00 in0.0 mm 0.00 in0.0 mm 0.10 in2.5 mm
05:20 PM 85.6°F29.8°C 63.7°F17.6°C 48% 8.0 mph N12.9 kmh N 14.0 mph22.5 kmh 29.65 in1004.1 mb 0.00 in0.0 mm 0.00 in0.0 mm 0.10 in2.5 mm
05:25 PM 85.6°F29.8°C 63.7°F17.6°C 48% 5.0 mph N8.0 kmh N 14.0 mph22.5 kmh 29.65 in1004.1 mb 0.00 in0.0 mm 0.00 in0.0 mm 0.10 in2.5 mm
05:30 PM 85.6°F29.8°C 64.3°F17.9°C 49% 5.0 mph N8.0 kmh N 11.0 mph17.7 kmh 29.65 in1004.1 mb 0.00 in0.0 mm 0.00 in0.0 mm 0.10 in2.5 mm
05:35 PM 85.2°F29.6°C 65.1°F18.4°C 51% 3.0 mph N4.8 kmh N 11.0 mph17.7 kmh 29.64 in1003.7 mb 0.00 in0.0 mm 0.00 in0.0 mm 0.10 in2.5 mm
05:40 PM 84.9°F29.4°C 66.4°F19.1°C 54% 5.0 mph N8.0 kmh N 11.0 mph17.7 kmh 29.64 in1003.7 mb 0.00 in0.0 mm 0.00 in0.0 mm 0.10 in2.5 mm
05:45 PM 85.1°F29.5°C 64.4°F18.0°C 50% 3.0 mph N4.8 kmh N 6.0 mph9.7 kmh 29.65 in1004.1 mb 0.00 in0.0 mm 0.00 in0.0 mm 0.10 in2.5 mm
05:50 PM 84.9°F29.4°C 65.3°F18.5°C 52% 9.0 mph N14.5 kmh N 14.0 mph22.5 kmh 29.65 in1004.1 mb 0.00 in0.0 mm 0.00 in0.0 mm 0.10 in2.5 mm
05:55 PM 84.9°F29.4°C 66.4°F19.1°C 54% 3.0 mph N4.8 kmh N 14.0 mph22.5 kmh 29.64 in1003.7 mb 0.00 in0.0 mm 0.00 in0.0 mm 0.10 in2.5 mm
06:00 PM 85.2°F29.6°C 66.2°F19.0°C 53% 6.0 mph N9.7 kmh N 9.0 mph14.5 kmh 29.64 in1003.7 mb 0.00 in0.0 mm 0.00 in0.0 mm 0.10 in2.5 mm
06:05 PM 85.2°F29.6°C 63.9°F17.7°C 49% 6.0 mph N9.7 kmh N 10.0 mph16.1 kmh 29.64 in1003.7 mb 0.00 in0.0 mm 0.00 in0.0 mm 0.10 in2.5 mm
06:10 PM 85.1°F29.5°C 65.0°F18.3°C 51% 6.0 mph N9.7 kmh N 10.0 mph16.1 kmh 29.64 in1003.7 mb 0.00 in0.0 mm 0.00 in0.0 mm 0.10 in2.5 mm
06:15 PM 84.8°F29.3°C 66.3°F19.1°C 54% 3.0 mph N4.8 kmh N 4.0 mph6.4 kmh 29.64 in1003.7 mb 0.00 in0.0 mm 0.00 in0.0 mm 0.10 in2.5 mm
06:20 PM 85.0°F29.4°C 65.4°F18.6°C 52% 3.0 mph N4.8 kmh N 9.0 mph14.5 kmh 29.64 in1003.7 mb 0.00 in0.0 mm 0.00 in0.0 mm 0.10 in2.5 mm
06:25 PM 85.2°F29.6°C 65.6°F18.7°C 52% 6.0 mph N9.7 kmh N 9.0 mph14.5 kmh 29.64 in1003.7 mb 0.00 in0.0 mm 0.00 in0.0 mm 0.10 in2.5 mm
06:30 PM 85.0°F29.4°C 65.4°F18.6°C 52% 6.0 mph N9.7 kmh N 6.0 mph9.7 kmh 29.64 in1003.7 mb 0.00 in0.0 mm 0.00 in0.0 mm 0.10 in2.5 mm
06:35 PM 85.0°F29.4°C 66.0°F18.9°C 53% 4.0 mph N6.4 kmh N 12.0 mph19.3 kmh 29.64 in1003.7 mb 0.00 in0.0 mm 0.00 in0.0 mm 0.10 in2.5 mm
06:40 PM 85.0°F29.4°C 65.4°F18.6°C 52% 4.0 mph N6.4 kmh N 12.0 mph19.3 kmh 29.64 in1003.7 mb 0.00 in0.0 mm 0.00 in0.0 mm 0.10 in2.5 mm
06:45 PM 85.0°F29.4°C 64.3°F17.9°C 50% 3.0 mph N4.8 kmh N 6.0 mph9.7 kmh 29.64 in1003.7 mb 0.00 in0.0 mm 0.00 in0.0 mm 0.10 in2.5 mm
06:50 PM 84.5°F29.2°C 64.4°F18.0°C 51% 4.0 mph N6.4 kmh N 9.0 mph14.5 kmh 29.64 in1003.7 mb 0.00 in0.0 mm 0.00 in0.0 mm 0.10 in2.5 mm
06:55 PM 84.1°F28.9°C 64.0°F17.8°C 51% 2.0 mph N3.2 kmh N 9.0 mph14.5 kmh 29.64 in1003.7 mb 0.00 in0.0 mm 0.00 in0.0 mm 0.10 in2.5 mm
07:00 PM 83.7°F28.7°C 63.7°F17.6°C 51% 3.0 mph N4.8 kmh N 3.0 mph4.8 kmh 29.63 in1003.4 mb 0.00 in0.0 mm 0.00 in0.0 mm 0.10 in2.5 mm
07:05 PM 83.4°F28.6°C 64.0°F17.8°C 52% Calm Calm 7.0 mph11.3 kmh 29.63 in1003.4 mb 0.00 in0.0 mm 0.00 in0.0 mm 0.10 in2.5 mm
07:10 PM 83.2°F28.4°C 65.9°F18.8°C 56% 1.0 mph N1.6 kmh N 7.0 mph11.3 kmh 29.63 in1003.4 mb 0.00 in0.0 mm 0.00 in0.0 mm 0.10 in2.5 mm
07:15 PM 83.0°F28.3°C 67.2°F19.6°C 59% 2.0 mph N3.2 kmh N 2.0 mph3.2 kmh 29.63 in1003.4 mb 0.00 in0.0 mm 0.00 in0.0 mm 0.10 in2.5 mm
07:20 PM 82.8°F28.2°C 67.0°F19.4°C 59% 1.0 mph N1.6 kmh N 4.0 mph6.4 kmh 29.63 in1003.4 mb 0.00 in0.0 mm 0.00 in0.0 mm 0.10 in2.5 mm
07:25 PM 82.5°F28.1°C 67.2°F19.6°C 60% 1.0 mph N1.6 kmh N 4.0 mph6.4 kmh 29.64 in1003.7 mb 0.00 in0.0 mm 0.00 in0.0 mm 0.10 in2.5 mm
07:30 PM 82.2°F27.9°C 67.0°F19.4°C 60% 3.0 mph N4.8 kmh N 3.0 mph4.8 kmh 29.64 in1003.7 mb 0.00 in0.0 mm 0.00 in0.0 mm 0.10 in2.5 mm
07:35 PM 82.0°F27.8°C 66.8°F19.3°C 60% 2.0 mph N3.2 kmh N 3.0 mph4.8 kmh 29.63 in1003.4 mb 0.00 in0.0 mm 0.00 in0.0 mm 0.10 in2.5 mm
07:40 PM 81.8°F27.7°C 66.1°F18.9°C 59% 1.0 mph N1.6 kmh N 4.0 mph6.4 kmh 29.63 in1003.4 mb 0.00 in0.0 mm 0.00 in0.0 mm 0.10 in2.5 mm
07:45 PM 81.6°F27.6°C 66.4°F19.1°C 60% 1.0 mph N1.6 kmh N 2.0 mph3.2 kmh 29.64 in1003.7 mb 0.00 in0.0 mm 0.00 in0.0 mm 0.10 in2.5 mm
07:50 PM 81.4°F27.4°C 66.2°F19.0°C 60% Calm Calm 2.0 mph3.2 kmh 29.63 in1003.4 mb 0.00 in0.0 mm 0.00 in0.0 mm 0.10 in2.5 mm
07:55 PM 81.1°F27.3°C 65.9°F18.8°C 60% Calm Calm 2.0 mph3.2 kmh 29.63 in1003.4 mb 0.00 in0.0 mm 0.00 in0.0 mm 0.10 in2.5 mm
08:00 PM 80.9°F27.2°C 65.7°F18.7°C 60% Calm Calm -- 29.64 in1003.7 mb 0.00 in0.0 mm 0.00 in0.0 mm 0.10 in2.5 mm
08:05 PM 80.6°F27.0°C 66.4°F19.1°C 62% Calm Calm -- 29.64 in1003.7 mb 0.00 in0.0 mm 0.00 in0.0 mm 0.10 in2.5 mm
08:10 PM 80.3°F26.8°C 67.0°F19.4°C 64% Calm Calm -- 29.63 in1003.4 mb 0.00 in0.0 mm 0.00 in0.0 mm 0.10 in2.5 mm
08:15 PM 80.2°F26.8°C 66.9°F19.4°C 64% Calm Calm -- 29.63 in1003.4 mb 0.00 in0.0 mm 0.00 in0.0 mm 0.10 in2.5 mm
08:20 PM 80.1°F26.7°C 67.3°F19.6°C 65% Calm Calm -- 29.62 in1003.0 mb 0.00 in0.0 mm 0.00 in0.0 mm 0.10 in2.5 mm
08:25 PM 80.0°F26.7°C 66.7°F19.3°C 64% Calm Calm -- 29.62 in1003.0 mb 0.00 in0.0 mm 0.00 in0.0 mm 0.10 in2.5 mm
08:30 PM 79.9°F26.6°C 66.7°F19.3°C 64% Calm Calm -- 29.62 in1003.0 mb 0.00 in0.0 mm 0.00 in0.0 mm 0.10 in2.5 mm
08:35 PM 79.8°F26.6°C 66.6°F19.2°C 64% Calm Calm -- 29.63 in1003.4 mb 0.00 in0.0 mm 0.00 in0.0 mm 0.10 in2.5 mm
08:40 PM 79.7°F26.5°C 66.5°F19.2°C 64% Calm Calm -- 29.62 in1003.0 mb 0.00 in0.0 mm 0.00 in0.0 mm 0.10 in2.5 mm
08:45 PM 79.7°F26.5°C 66.5°F19.2°C 64% Calm Calm -- 29.62 in1003.0 mb 0.00 in0.0 mm 0.00 in0.0 mm 0.10 in2.5 mm
08:50 PM 79.6°F26.4°C 66.8°F19.3°C 65% Calm Calm -- 29.63 in1003.4 mb 0.00 in0.0 mm 0.00 in0.0 mm 0.10 in2.5 mm
08:55 PM 79.6°F26.4°C 66.4°F19.1°C 64% Calm Calm -- 29.64 in1003.7 mb 0.00 in0.0 mm 0.00 in0.0 mm 0.10 in2.5 mm
09:00 PM 79.5°F26.4°C 66.7°F19.3°C 65% Calm Calm -- 29.65 in1004.1 mb 0.00 in0.0 mm 0.00 in0.0 mm 0.10 in2.5 mm
09:05 PM 79.4°F26.3°C 66.6°F19.2°C 65% Calm Calm -- 29.65 in1004.1 mb 0.00 in0.0 mm 0.00 in0.0 mm 0.10 in2.5 mm
09:10 PM 79.3°F26.3°C 66.5°F19.2°C 65% Calm Calm -- 29.64 in1003.7 mb 0.00 in0.0 mm 0.00 in0.0 mm 0.10 in2.5 mm
09:15 PM 79.1°F26.2°C 66.8°F19.3°C 66% Calm Calm -- 29.65 in1004.1 mb 0.00 in0.0 mm 0.00 in0.0 mm 0.10 in2.5 mm
09:20 PM 79.0°F26.1°C 66.7°F19.3°C 66% Calm Calm -- 29.64 in1003.7 mb 0.00 in0.0 mm 0.00 in0.0 mm 0.10 in2.5 mm
09:25 PM 78.7°F25.9°C 66.4°F19.1°C 66% Calm Calm -- 29.64 in1003.7 mb 0.00 in0.0 mm 0.00 in0.0 mm 0.10 in2.5 mm
09:30 PM 78.5°F25.8°C 66.2°F19.0°C 66% Calm Calm -- 29.64 in1003.7 mb 0.00 in0.0 mm 0.00 in0.0 mm 0.10 in2.5 mm
09:35 PM 78.3°F25.7°C 66.9°F19.4°C 68% Calm Calm -- 29.64 in1003.7 mb 0.00 in0.0 mm 0.00 in0.0 mm 0.10 in2.5 mm
09:40 PM 78.0°F25.6°C 66.6°F19.2°C 68% Calm Calm -- 29.64 in1003.7 mb 0.00 in0.0 mm 0.00 in0.0 mm 0.10 in2.5 mm
09:45 PM 77.7°F25.4°C 67.6°F19.8°C 71% Calm Calm -- 29.64 in1003.7 mb 0.00 in0.0 mm 0.00 in0.0 mm 0.10 in2.5 mm
09:50 PM 77.4°F25.2°C 68.1°F20.1°C 73% Calm Calm -- 29.64 in1003.7 mb 0.00 in0.0 mm 0.00 in0.0 mm 0.10 in2.5 mm
09:55 PM 77.1°F25.1°C 68.6°F20.3°C 75% Calm Calm -- 29.64 in1003.7 mb 0.00 in0.0 mm 0.00 in0.0 mm 0.10 in2.5 mm
10:00 PM 76.9°F24.9°C 68.4°F20.2°C 75% Calm Calm -- 29.64 in1003.7 mb 0.00 in0.0 mm 0.00 in0.0 mm 0.10 in2.5 mm
10:05 PM 76.6°F24.8°C 68.5°F20.3°C 76% Calm Calm -- 29.64 in1003.7 mb 0.00 in0.0 mm 0.00 in0.0 mm 0.10 in2.5 mm
10:10 PM 76.3°F24.6°C 68.6°F20.3°C 77% Calm Calm -- 29.64 in1003.7 mb 0.00 in0.0 mm 0.00 in0.0 mm 0.10 in2.5 mm
10:15 PM 76.0°F24.4°C 68.7°F20.4°C 78% Calm Calm -- 29.64 in1003.7 mb 0.00 in0.0 mm 0.00 in0.0 mm 0.10 in2.5 mm
10:20 PM 75.7°F24.3°C 68.7°F20.4°C 79% Calm Calm -- 29.64 in1003.7 mb 0.00 in0.0 mm 0.00 in0.0 mm 0.10 in2.5 mm
10:25 PM 75.5°F24.2°C 68.5°F20.3°C 79% Calm Calm -- 29.64 in1003.7 mb 0.00 in0.0 mm 0.00 in0.0 mm 0.10 in2.5 mm
10:30 PM 75.3°F24.1°C 68.7°F20.4°C 80% Calm Calm -- 29.65 in1004.1 mb 0.00 in0.0 mm 0.00 in0.0 mm 0.10 in2.5 mm
10:35 PM 75.0°F23.9°C 68.4°F20.2°C 80% Calm Calm -- 29.65 in1004.1 mb 0.00 in0.0 mm 0.00 in0.0 mm 0.10 in2.5 mm
10:40 PM 74.8°F23.8°C 68.2°F20.1°C 80% Calm Calm -- 29.65 in1004.1 mb 0.00 in0.0 mm 0.00 in0.0 mm 0.10 in2.5 mm
10:45 PM 74.6°F23.7°C 68.4°F20.2°C 81% Calm Calm -- 29.64 in1003.7 mb 0.00 in0.0 mm 0.00 in0.0 mm 0.10 in2.5 mm
10:50 PM 74.4°F23.6°C 67.8°F19.9°C 80% Calm Calm -- 29.63 in1003.4 mb 0.00 in0.0 mm 0.00 in0.0 mm 0.10 in2.5 mm
10:55 PM 74.2°F23.4°C 68.0°F20.0°C 81% Calm Calm -- 29.62 in1003.0 mb 0.00 in0.0 mm 0.00 in0.0 mm 0.10 in2.5 mm
11:00 PM 74.1°F23.4°C 67.5°F19.7°C 80% Calm Calm -- 29.62 in1003.0 mb 0.00 in0.0 mm 0.00 in0.0 mm 0.10 in2.5 mm
11:05 PM 74.0°F23.3°C 67.8°F19.9°C 81% Calm Calm -- 29.61 in1002.7 mb 0.00 in0.0 mm 0.00 in0.0 mm 0.10 in2.5 mm
11:10 PM 73.9°F23.3°C 67.7°F19.8°C 81% Calm Calm -- 29.61 in1002.7 mb 0.00 in0.0 mm 0.00 in0.0 mm 0.10 in2.5 mm
11:15 PM 73.9°F23.3°C 68.1°F20.1°C 82% Calm Calm -- 29.60 in1002.4 mb 0.00 in0.0 mm 0.00 in0.0 mm 0.10 in2.5 mm
11:20 PM 73.8°F23.2°C 68.0°F20.0°C 82% Calm Calm -- 29.60 in1002.4 mb 0.00 in0.0 mm 0.00 in0.0 mm 0.10 in2.5 mm
11:25 PM 73.7°F23.2°C 67.9°F19.9°C 82% Calm Calm -- 29.61 in1002.7 mb 0.00 in0.0 mm 0.00 in0.0 mm 0.10 in2.5 mm
11:30 PM 73.7°F23.2°C 67.9°F19.9°C 82% Calm Calm -- 29.62 in1003.0 mb 0.00 in0.0 mm 0.00 in0.0 mm 0.10 in2.5 mm
11:35 PM 73.7°F23.2°C 67.9°F19.9°C 82% Calm Calm -- 29.63 in1003.4 mb 0.00 in0.0 mm 0.00 in0.0 mm 0.10 in2.5 mm
11:40 PM 73.6°F23.1°C 68.1°F20.1°C 83% Calm Calm -- 29.63 in1003.4 mb 0.00 in0.0 mm 0.00 in0.0 mm 0.10 in2.5 mm
11:45 PM 73.5°F23.1°C 68.4°F20.2°C 84% Calm Calm -- 29.63 in1003.4 mb 0.00 in0.0 mm 0.00 in0.0 mm 0.10 in2.5 mm
11:50 PM 73.3°F22.9°C 68.5°F20.3°C 85% Calm Calm -- 29.63 in1003.4 mb 0.00 in0.0 mm 0.00 in0.0 mm 0.10 in2.5 mm
11:55 PM 73.1°F22.8°C 68.3°F20.2°C 85% Calm Calm -- 29.63 in1003.4 mb 0.00 in0.0 mm 0.00 in0.0 mm 0.10 in2.5 mm